createdAt,value
2022-09-04T00:01:30.045Z,5.75
2022-09-04T00:04:07.689Z,8.63
2022-09-04T00:06:42.639Z,6.68
2022-09-04T00:09:25.232Z,12.77
2022-09-04T00:12:05.617Z,8.00
2022-09-04T00:14:42.361Z,6.25
2022-09-04T00:17:15.086Z,5.45
2022-09-04T00:20:02.745Z,6.65
2022-09-04T00:22:52.389Z,6.82
2022-09-04T00:25:26.290Z,6.40
2022-09-04T00:28:02.954Z,6.35
2022-09-04T00:30:31.339Z,6.15
2022-09-04T00:33:08.417Z,6.18
2022-09-04T00:35:41.263Z,6.57
2022-09-04T00:38:15.704Z,6.97
2022-09-04T00:41:20.477Z,8.32
2022-09-04T00:44:01.221Z,7.60
2022-09-04T00:46:59.139Z,6.97
2022-09-04T00:49:28.383Z,7.20
2022-09-04T00:52:20.837Z,8.30
2022-09-04T00:55:28.866Z,6.85
2022-09-04T00:58:18.907Z,7.40
2022-09-04T01:00:47.726Z,7.20
2022-09-04T01:03:52.241Z,7.03
2022-09-04T01:06:50.084Z,9.80
2022-09-04T01:09:32.798Z,7.80
2022-09-04T01:12:32.651Z,10.60
2022-09-04T01:15:15.545Z,7.90
2022-09-04T01:17:58.587Z,7.35
2022-09-04T01:20:34.298Z,12.40
2022-09-04T01:23:07.818Z,9.57
2022-09-04T01:25:57.463Z,10.43
2022-09-04T01:28:50.866Z,9.35
2022-09-04T01:32:01.395Z,9.50
2022-09-04T01:34:59.503Z,9.18
2022-09-04T01:37:42.195Z,9.65
2022-09-04T01:40:38.011Z,8.52
2022-09-04T01:43:23.056Z,7.82
2022-09-04T01:45:53.354Z,7.28
2022-09-04T01:48:50.598Z,8.23
2022-09-04T01:51:25.361Z,7.90
2022-09-04T01:54:12.839Z,7.97
2022-09-04T01:57:05.818Z,7.63
2022-09-04T01:59:56.149Z,8.65
2022-09-04T02:02:53.519Z,8.20
2022-09-04T02:05:30.349Z,7.75
2022-09-04T02:08:09.836Z,8.07
2022-09-04T02:10:43.278Z,8.13
2022-09-04T02:13:24.712Z,8.50
2022-09-04T02:16:01.061Z,8.55
2022-09-04T02:18:36.106Z,9.93
2022-09-04T02:21:12.598Z,9.70
2022-09-04T02:24:10.783Z,9.40
2022-09-04T02:26:55.170Z,9.20
2022-09-04T02:29:46.977Z,11.18
2022-09-04T02:32:25.783Z,11.77
2022-09-04T02:35:05.999Z,12.13
2022-09-04T02:38:14.252Z,13.45
2022-09-04T02:41:02.525Z,13.52
2022-09-04T02:43:54.664Z,14.90
2022-09-04T02:47:00.660Z,15.98
2022-09-04T02:49:48.536Z,16.83
2022-09-04T02:53:08.071Z,18.02
2022-09-04T02:55:57.683Z,17.25
2022-09-04T02:58:46.924Z,17.55
2022-09-04T03:01:22.369Z,17.48
2022-09-04T03:04:11.167Z,18.45
2022-09-04T03:06:44.733Z,20.50
2022-09-04T03:09:29.258Z,19.58
2022-09-04T03:12:03.147Z,20.83
2022-09-04T03:14:47.046Z,19.65
2022-09-04T03:17:28.223Z,18.90
2022-09-04T03:20:02.673Z,19.00
2022-09-04T03:22:41.693Z,19.95
2022-09-04T03:25:25.829Z,20.92
2022-09-04T03:27:53.258Z,20.63
2022-09-04T03:30:20.722Z,21.75
2022-09-04T03:33:03.857Z,22.67
2022-09-04T03:35:59.969Z,22.50
2022-09-04T03:38:31.435Z,22.65
2022-09-04T03:41:09.067Z,23.20
2022-09-04T03:43:45.421Z,23.17
2022-09-04T03:46:31.726Z,22.83
2022-09-04T03:49:17.323Z,24.60
2022-09-04T03:52:18.164Z,24.58
2022-09-04T03:55:00.510Z,24.52
2022-09-04T03:58:18.348Z,26.35
2022-09-04T04:01:01.610Z,25.65
2022-09-04T04:03:52.394Z,25.33
2022-09-04T04:06:29.588Z,24.70
2022-09-04T04:09:35.056Z,27.27
2022-09-04T04:12:15.969Z,25.70
2022-09-04T04:14:51.355Z,26.65
2022-09-04T04:17:56.376Z,26.70
2022-09-04T04:20:38.488Z,26.90
2022-09-04T04:23:18.744Z,28.27
2022-09-04T04:26:04.831Z,26.58
2022-09-04T04:28:59.274Z,28.08
2022-09-04T04:32:10.489Z,27.73
2022-09-04T04:38:00.517Z,26.65
2022-09-04T04:41:05.345Z,27.73
2022-09-04T04:44:16.993Z,27.23
2022-09-04T04:46:58.949Z,26.52
2022-09-04T04:49:52.091Z,27.20
2022-09-04T04:52:19.490Z,28.40
2022-09-04T04:55:31.401Z,25.65
2022-09-04T04:58:26.162Z,26.00
2022-09-04T05:01:09.543Z,27.63
2022-09-04T05:04:05.131Z,26.13
2022-09-04T05:06:40.814Z,24.95
2022-09-04T05:09:14.815Z,26.52
2022-09-04T05:12:14.539Z,25.77
2022-09-04T05:14:55.143Z,24.23
2022-09-04T05:17:52.380Z,25.02
2022-09-04T05:20:42.643Z,26.75
2022-09-04T05:23:40.938Z,24.37
2022-09-04T05:26:23.455Z,24.23
2022-09-04T05:28:57.922Z,22.50
2022-09-04T05:31:58.624Z,23.55
2022-09-04T05:34:49.090Z,25.85
2022-09-04T05:37:37.715Z,23.70
2022-09-04T05:40:43.472Z,20.45
2022-09-04T05:43:20.178Z,21.33
2022-09-04T05:46:09.480Z,22.25
2022-09-04T05:49:01.050Z,20.98
2022-09-04T05:51:38.636Z,20.63
2022-09-04T05:54:36.673Z,21.25
2022-09-04T05:57:09.417Z,19.90
2022-09-04T06:00:10.516Z,20.15
2022-09-04T06:02:55.823Z,18.05
2022-09-04T06:05:36.924Z,17.85
2022-09-04T06:08:26.540Z,18.08
2022-09-04T06:11:07.860Z,16.20
2022-09-04T06:13:53.996Z,17.30
2022-09-04T06:16:34.880Z,19.08
2022-09-04T06:19:42.611Z,16.65
2022-09-04T06:22:15.782Z,15.85
2022-09-04T06:25:01.541Z,19.98
2022-09-04T06:27:38.209Z,13.50
2022-09-04T06:30:16.880Z,14.05
2022-09-04T06:33:15.363Z,13.32
2022-09-04T06:36:02.910Z,12.82
2022-09-04T06:39:07.988Z,11.90
2022-09-04T06:41:50.174Z,11.32
2022-09-04T06:44:52.309Z,12.13
2022-09-04T06:47:38.245Z,13.68
2022-09-04T06:50:39.200Z,10.60
2022-09-04T06:53:18.791Z,10.77
2022-09-04T06:55:51.680Z,10.50
2022-09-04T06:58:44.884Z,10.25
2022-09-04T07:01:30.910Z,10.35
2022-09-04T07:04:04.473Z,13.40
2022-09-04T07:06:51.673Z,10.95
2022-09-04T07:09:26.156Z,10.52
2022-09-04T07:12:15.422Z,10.27
2022-09-04T07:15:28.980Z,10.20
2022-09-04T07:18:11.133Z,8.95
2022-09-04T07:21:15.455Z,9.52
2022-09-04T07:24:09.994Z,8.65
2022-09-04T07:26:45.110Z,7.10
2022-09-04T07:29:34.789Z,7.82
2022-09-04T07:32:28.677Z,6.90
2022-09-04T07:35:10.848Z,7.35
2022-09-04T07:37:50.148Z,6.05
2022-09-04T07:40:27.909Z,6.00
2022-09-04T07:43:05.375Z,6.00
2022-09-04T07:45:47.633Z,5.07
2022-09-04T07:48:30.619Z,5.70
2022-09-04T07:51:10.896Z,4.50
2022-09-04T07:54:22.995Z,2.97
2022-09-04T07:57:19.464Z,3.83
2022-09-04T08:00:22.844Z,2.90
2022-09-04T08:03:20.558Z,4.15
2022-09-04T08:06:19.323Z,2.90
2022-09-04T08:09:03.489Z,2.83
2022-09-04T08:11:46.102Z,2.97
2022-09-04T08:14:26.340Z,3.58
2022-09-04T08:17:24.419Z,2.70
2022-09-04T08:20:17.578Z,2.60
2022-09-04T08:23:06.576Z,2.65
2022-09-04T08:25:57.833Z,3.10
2022-09-04T08:29:25.106Z,3.15
2022-09-04T08:32:19.165Z,3.08
2022-09-04T08:35:00.632Z,3.30
2022-09-04T08:37:54.105Z,2.58
2022-09-04T08:41:06.872Z,2.85
2022-09-04T08:43:45.941Z,2.08
2022-09-04T08:46:30.172Z,2.85
2022-09-04T08:49:24.736Z,2.50
2022-09-04T08:52:06.797Z,2.17
2022-09-04T08:55:19.809Z,2.53
2022-09-04T08:57:56.618Z,3.15
2022-09-04T09:00:38.132Z,2.80
2022-09-04T09:03:50.137Z,2.03
2022-09-04T09:06:40.424Z,2.40
2022-09-04T09:09:25.828Z,3.00
2022-09-04T09:12:21.700Z,2.67
2022-09-04T09:15:42.929Z,2.40
2022-09-04T09:21:09.322Z,2.05
2022-09-04T09:23:55.500Z,1.85
2022-09-04T09:26:27.710Z,3.00
2022-09-04T09:29:30.555Z,1.95
2022-09-04T09:32:18.840Z,2.03
2022-09-04T09:35:08.840Z,2.30
2022-09-04T09:37:51.253Z,2.25
2022-09-04T09:40:50.105Z,2.13
2022-09-04T09:43:33.641Z,2.60
2022-09-04T09:46:12.944Z,2.45
2022-09-04T09:49:15.231Z,2.70
2022-09-04T09:52:03.850Z,2.65
2022-09-04T09:54:49.095Z,2.50
2022-09-04T09:57:33.829Z,2.17
2022-09-04T10:00:17.324Z,2.63
2022-09-04T10:03:06.315Z,2.40
2022-09-04T10:06:00.113Z,2.75
2022-09-04T10:08:49.034Z,2.60
2022-09-04T10:11:47.095Z,2.40
2022-09-04T10:14:14.465Z,2.72
2022-09-04T10:17:00.710Z,1.77
2022-09-04T10:20:02.304Z,2.35
2022-09-04T10:22:51.581Z,2.58
2022-09-04T10:25:22.065Z,2.97
2022-09-04T10:28:14.479Z,2.70
2022-09-04T10:31:03.937Z,9.60
2022-09-04T10:33:58.076Z,3.17
2022-09-04T10:37:04.335Z,5.80
2022-09-04T10:40:09.206Z,3.78
2022-09-04T10:42:51.819Z,4.10
2022-09-04T10:45:47.282Z,2.80
2022-09-04T10:49:04.111Z,2.08
2022-09-04T10:51:56.429Z,3.10
2022-09-04T10:54:44.941Z,2.40
2022-09-04T10:57:39.562Z,3.15
2022-09-04T11:00:08.923Z,3.30
2022-09-04T11:03:14.138Z,7.15
2022-09-04T11:06:02.796Z,4.93
2022-09-04T11:08:48.024Z,2.40
2022-09-04T11:11:40.709Z,2.20
2022-09-04T11:14:29.909Z,3.13
2022-09-04T11:17:24.646Z,2.10
2022-09-04T11:20:17.550Z,3.20
2022-09-04T11:23:23.193Z,2.38
2022-09-04T11:26:09.366Z,2.38
2022-09-04T11:28:58.496Z,1.88
2022-09-04T11:31:55.441Z,3.92
2022-09-04T11:35:00.033Z,3.33
2022-09-04T11:37:57.701Z,2.33
2022-09-04T11:40:37.726Z,2.53
2022-09-04T11:43:52.519Z,2.00
2022-09-04T11:46:38.406Z,2.50
2022-09-04T11:49:36.475Z,1.95
2022-09-04T11:52:23.855Z,2.67
2022-09-04T11:54:53.956Z,1.70
2022-09-04T11:57:49.970Z,2.58
2022-09-04T12:00:18.802Z,2.20
2022-09-04T12:03:02.186Z,2.45
2022-09-04T12:06:03.719Z,2.95
2022-09-04T12:09:17.610Z,4.22
2022-09-04T12:12:12.633Z,2.30
2022-09-04T12:14:57.833Z,3.05
2022-09-04T12:17:56.473Z,2.55
2022-09-04T12:23:22.505Z,2.40
2022-09-04T12:26:03.803Z,2.33
2022-09-04T12:29:01.242Z,2.47
2022-09-04T12:32:15.511Z,2.45
2022-09-04T12:35:08.790Z,2.13
2022-09-04T12:38:10.431Z,2.50
2022-09-04T12:40:52.551Z,2.83
2022-09-04T12:43:31.595Z,2.78
2022-09-04T12:46:24.788Z,2.20
2022-09-04T12:48:55.303Z,2.80
2022-09-04T12:51:27.134Z,4.35
2022-09-04T12:54:09.232Z,2.90
2022-09-04T12:56:45.188Z,2.60
2022-09-04T12:59:23.511Z,2.60
2022-09-04T13:02:29.434Z,2.28
2022-09-04T13:05:27.322Z,2.33
2022-09-04T13:08:31.800Z,2.65
2022-09-04T13:11:24.024Z,2.25
2022-09-04T13:14:07.228Z,2.40
2022-09-04T13:17:00.980Z,2.65
2022-09-04T13:20:12.769Z,2.20
2022-09-04T13:23:36.886Z,2.70
2022-09-04T13:26:46.136Z,2.30
2022-09-04T13:29:28.194Z,2.70
2022-09-04T13:32:16.585Z,2.60
2022-09-04T13:35:09.620Z,2.50
2022-09-04T13:37:52.826Z,2.83
2022-09-04T13:40:55.032Z,2.80
2022-09-04T13:43:31.357Z,4.22
2022-09-04T13:46:04.939Z,2.88
2022-09-04T13:48:32.706Z,2.60
2022-09-04T13:51:13.568Z,3.13
2022-09-04T13:53:49.299Z,2.70
2022-09-04T13:56:23.192Z,2.38
2022-09-04T13:58:52.728Z,2.30
2022-09-04T14:01:25.677Z,2.30
2022-09-04T14:03:55.152Z,2.97
2022-09-04T14:06:25.229Z,2.28
2022-09-04T14:09:05.054Z,2.37
2022-09-04T14:11:53.357Z,2.60
2022-09-04T14:14:48.665Z,2.20
2022-09-04T14:17:27.026Z,2.25
2022-09-04T14:20:03.060Z,2.47
2022-09-04T14:22:55.951Z,2.13
2022-09-04T14:25:51.239Z,2.00
2022-09-04T14:28:30.105Z,2.15
2022-09-04T14:31:10.729Z,6.78
2022-09-04T14:33:46.603Z,2.72
2022-09-04T14:36:17.279Z,3.08
2022-09-04T14:39:27.552Z,4.68
2022-09-04T14:42:19.787Z,6.75
2022-09-04T14:44:50.229Z,6.22
2022-09-04T14:47:39.309Z,2.50
2022-09-04T14:50:16.280Z,2.58
2022-09-04T14:52:45.972Z,3.60
2022-09-04T14:55:17.171Z,2.75
2022-09-04T14:57:50.929Z,2.75
2022-09-04T15:00:20.872Z,2.40
2022-09-04T15:03:16.342Z,2.80
2022-09-04T15:05:51.550Z,1.80
2022-09-04T15:08:40.801Z,2.17
2022-09-04T15:11:10.522Z,2.38
2022-09-04T15:13:48.723Z,2.78
2022-09-04T15:16:22.280Z,2.20
2022-09-04T15:18:51.705Z,2.53
2022-09-04T15:21:35.972Z,2.38
2022-09-04T15:24:15.310Z,2.08
2022-09-04T15:26:57.512Z,2.42
2022-09-04T15:29:53.597Z,3.22
2022-09-04T15:32:24.295Z,1.77
2022-09-04T15:37:48.308Z,2.47
2022-09-04T15:40:34.386Z,2.08
2022-09-04T15:43:11.134Z,3.03
2022-09-04T15:45:53.800Z,4.97
2022-09-04T15:48:53.298Z,3.03
2022-09-04T15:51:41.556Z,3.40
2022-09-04T15:54:15.323Z,16.00
2022-09-04T15:57:08.937Z,1.88
2022-09-04T15:59:46.216Z,3.90
2022-09-04T16:02:38.612Z,3.70
2022-09-04T16:05:41.364Z,2.40
2022-09-04T16:08:32.810Z,2.83
2022-09-04T16:11:12.357Z,2.53
2022-09-04T16:14:14.060Z,2.65
2022-09-04T16:16:53.153Z,3.33
2022-09-04T16:19:34.439Z,3.13
2022-09-04T16:22:16.944Z,2.42
2022-09-04T16:24:48.019Z,1.95
2022-09-04T16:27:23.052Z,2.20
2022-09-04T16:30:02.833Z,2.88
2022-09-04T16:32:35.185Z,2.00
2022-09-04T16:35:19.163Z,2.40
2022-09-04T16:38:13.093Z,2.10
2022-09-04T16:40:54.319Z,2.03
2022-09-04T16:43:34.453Z,2.05
2022-09-04T16:46:30.219Z,2.33
2022-09-04T16:49:07.195Z,1.98
2022-09-04T16:51:48.477Z,2.42
2022-09-04T16:54:41.338Z,2.10
2022-09-04T16:57:21.524Z,1.98
2022-09-04T16:59:55.739Z,2.45
2022-09-04T17:02:48.748Z,2.47
2022-09-04T17:05:28.797Z,2.60
2022-09-04T17:08:10.890Z,2.88
2022-09-04T17:10:54.440Z,2.10
2022-09-04T17:13:29.176Z,2.30
2022-09-04T17:16:33.850Z,2.65
2022-09-04T17:19:01.463Z,2.03
2022-09-04T17:27:47.867Z,2.00
2022-09-04T17:29:11.935Z,2.20
2022-09-04T17:29:17.723Z,2.00
2022-09-04T17:31:33.176Z,2.35
2022-09-04T17:40:40.111Z,2.35
2022-09-04T17:40:41.465Z,1.95
2022-09-04T17:41:38.243Z,2.35
2022-09-04T17:44:25.463Z,2.15
2022-09-04T17:47:08.454Z,2.25
2022-09-04T17:49:44.664Z,3.20
2022-09-04T17:52:20.588Z,2.15
2022-09-04T17:54:49.658Z,2.22
2022-09-04T17:57:46.450Z,2.28
2022-09-04T18:00:21.062Z,3.40
2022-09-04T18:02:56.455Z,2.47
2022-09-04T18:05:42.063Z,2.65
2022-09-04T18:08:38.166Z,3.38
2022-09-04T18:11:34.362Z,2.67
2022-09-04T18:14:06.493Z,2.30
2022-09-04T18:16:36.867Z,2.22
2022-09-04T18:19:20.928Z,1.98
2022-09-04T18:22:25.047Z,9.05
2022-09-04T18:25:00.434Z,2.95
2022-09-04T18:28:19.959Z,4.28
2022-09-04T18:37:08.799Z,3.78
2022-09-04T18:37:21.676Z,3.55
2022-09-04T18:37:44.959Z,3.60
2022-09-04T18:43:02.001Z,2.42
2022-09-04T18:50:30.794Z,2.85
2022-09-04T18:50:38.514Z,4.07
2022-09-04T18:50:40.154Z,2.37
2022-09-04T18:52:20.476Z,2.20
2022-09-04T18:54:54.058Z,2.60
2022-09-04T18:57:32.406Z,2.92
2022-09-04T19:00:10.239Z,2.70
2022-09-04T19:02:54.042Z,2.35
2022-09-04T19:05:24.262Z,3.92
2022-09-04T19:07:59.842Z,3.33
2022-09-04T19:10:30.931Z,5.45
2022-09-04T19:13:19.385Z,3.60
2022-09-04T19:16:11.627Z,3.13
2022-09-04T19:18:43.750Z,2.92
2022-09-04T19:21:14.534Z,6.97
2022-09-04T19:23:50.037Z,3.17
2022-09-04T19:26:38.552Z,6.85
2022-09-04T19:29:25.108Z,3.55
2022-09-04T19:32:22.362Z,3.03
2022-09-04T19:34:59.298Z,2.88
2022-09-04T19:38:35.754Z,3.08
2022-09-04T19:46:05.990Z,14.27
2022-09-04T19:46:12.952Z,4.05
2022-09-04T19:46:43.068Z,6.93
2022-09-04T19:51:24.222Z,3.50
2022-09-04T19:53:35.515Z,2.05
2022-09-04T19:55:24.564Z,2.73
2022-09-04T19:58:14.680Z,3.53
2022-09-04T20:00:47.696Z,3.20
2022-09-04T20:03:45.927Z,4.10
2022-09-04T20:06:21.570Z,2.85
2022-09-04T20:08:57.871Z,2.72
2022-09-04T20:11:36.001Z,2.47
2022-09-04T20:14:13.797Z,2.90
2022-09-04T20:16:55.151Z,2.80
2022-09-04T20:19:34.724Z,2.20
2022-09-04T20:22:10.349Z,2.60
2022-09-04T20:25:01.828Z,2.83
2022-09-04T20:27:42.182Z,3.25
2022-09-04T20:30:24.641Z,2.88
2022-09-04T20:33:01.816Z,2.90
2022-09-04T20:35:34.524Z,2.97
2022-09-04T20:38:30.625Z,2.50
2022-09-04T20:41:07.790Z,2.90
2022-09-04T20:43:47.176Z,2.97
2022-09-04T20:48:55.191Z,2.65
2022-09-04T20:52:50.863Z,3.30
2022-09-04T20:53:07.000Z,3.55
2022-09-04T20:55:26.146Z,2.45
2022-09-04T21:03:11.045Z,2.38
2022-09-04T21:03:24.516Z,2.90
2022-09-04T21:04:12.150Z,2.50
2022-09-04T21:06:52.590Z,2.70
2022-09-04T21:09:55.317Z,2.45
2022-09-04T21:12:40.062Z,3.00
2022-09-04T21:15:33.982Z,4.05
2022-09-04T21:18:04.186Z,3.15
2022-09-04T21:20:31.528Z,3.00
2022-09-04T21:23:23.395Z,2.85
2022-09-04T21:25:58.114Z,8.63
2022-09-04T21:28:47.989Z,2.65
2022-09-04T21:31:44.013Z,2.97
2022-09-04T21:34:43.273Z,2.60
2022-09-04T21:37:21.594Z,2.75
2022-09-04T21:40:50.531Z,2.40
2022-09-04T21:43:36.409Z,2.72
2022-09-04T21:46:40.484Z,3.20
2022-09-04T21:49:35.656Z,2.80
2022-09-04T21:52:19.000Z,2.92
2022-09-04T21:58:49.210Z,2.70
2022-09-04T22:02:26.172Z,2.47
2022-09-04T22:02:42.825Z,2.85
2022-09-04T22:04:04.588Z,2.40
2022-09-04T22:09:17.581Z,2.65
2022-09-04T22:13:31.926Z,2.50
2022-09-04T22:13:50.142Z,2.10
2022-09-04T22:16:37.973Z,2.33
2022-09-04T22:19:21.352Z,1.95
2022-09-04T22:22:03.451Z,2.35
2022-09-04T22:24:56.364Z,2.00
2022-09-04T22:28:08.369Z,1.73
2022-09-04T22:31:17.808Z,2.40
2022-09-04T22:34:17.400Z,2.00
2022-09-04T22:37:20.318Z,2.05
2022-09-04T22:40:07.228Z,2.63
2022-09-04T22:43:14.460Z,1.98
2022-09-04T22:46:03.483Z,2.20
2022-09-04T22:49:07.993Z,2.08
2022-09-04T22:52:10.179Z,1.70
2022-09-04T22:55:39.149Z,2.53
2022-09-04T22:58:29.717Z,2.00
2022-09-04T23:01:10.276Z,1.85
2022-09-04T23:03:52.410Z,2.25
2022-09-04T23:10:21.601Z,2.03
2022-09-04T23:13:53.167Z,2.20
2022-09-04T23:13:58.088Z,2.08
2022-09-04T23:16:24.966Z,6.13
2022-09-04T23:26:31.252Z,2.25
2022-09-04T23:26:36.684Z,1.80
2022-09-04T23:26:48.446Z,2.10
2022-09-04T23:28:57.671Z,1.98
2022-09-04T23:34:35.993Z,2.22
2022-09-04T23:37:33.288Z,2.78
2022-09-04T23:40:27.279Z,3.10
2022-09-04T23:43:09.949Z,8.85
2022-09-04T23:45:37.308Z,3.15
2022-09-04T23:48:28.463Z,2.15
2022-09-04T23:51:04.480Z,2.30
2022-09-04T23:53:37.286Z,2.78
2022-09-04T23:56:16.779Z,2.92
2022-09-04T23:59:33.211Z,2.60
